Time;durP1;ratioP1;P1;durP2;ratioP2;P2;SDS_P1;SDS_P2;PMS_P1;PMS_P2;Temp;Humidity;BMP_temperature;BMP_pressure;BME280_temperature;BME280_humidity;BME280_pressure;Samples;Min_cycle;Max_cycle;Signal;HPM_P1;HPM_P2
2022/11/20 00:00:20;;;;;;;6.43;3.85;;;;;;;15.31;99.11;63577.69;5004374;28;20222;-79
2022/11/20 00:02:47;;;;;;;5.75;5.22;;;;;;;14.95;100.00;63543.38;5004166;28;20423;-77
2022/11/20 00:05:14;;;;;;;7.05;4.43;;;;;;;14.74;100.00;63515.91;5008450;28;20225;-78
2022/11/20 00:07:42;;;;;;;6.20;5.30;;;;;;;14.64;100.00;63508.06;5007004;28;20234;-78
2022/11/20 00:10:09;;;;;;;5.45;4.93;;;;;;;14.38;100.00;63479.03;4999049;28;20219;-78
2022/11/20 00:12:36;;;;;;;2.20;1.42;;;;;;;14.95;97.82;63545.41;5008453;28;20191;-78
2022/11/20 00:15:03;;;;;;;1.60;1.50;;;;;;;15.56;91.25;63608.31;5009266;28;20266;-79
2022/11/20 00:17:30;;;;;;;2.53;1.42;;;;;;;16.01;87.29;63649.97;4995774;28;20206;-78
2022/11/20 00:19:57;;;;;;;2.28;1.10;;;;;;;16.21;85.44;63668.19;5008896;28;20215;-78
2022/11/20 00:22:24;;;;;;;1.33;0.85;;;;;;;16.42;84.34;63694.66;5005770;28;20203;-78
2022/11/20 00:24:52;;;;;;;1.50;1.40;;;;;;;16.68;81.98;63721.72;5007294;28;20199;-79
2022/11/20 00:27:19;;;;;;;3.38;2.17;;;;;;;16.57;85.38;63708.22;4999387;28;20230;-79
2022/11/20 00:29:46;;;;;;;2.40;2.30;;;;;;;16.42;86.80;63695.19;4997646;28;20195;-79
2022/11/20 00:32:13;;;;;;;1.55;1.45;;;;;;;16.56;80.65;63707.19;5008624;28;20218;-78
2022/11/20 00:34:39;;;;;;;1.88;1.00;;;;;;;16.76;79.14;63730.03;5008565;28;20198;-78
2022/11/20 00:37:06;;;;;;;4.32;1.10;;;;;;;16.94;76.25;63746.22;4998675;28;20215;-78
2022/11/20 00:39:33;;;;;;;1.23;1.20;;;;;;;17.30;72.72;63786.25;4987093;28;20207;-79
2022/11/20 00:42:01;;;;;;;3.60;0.90;;;;;;;17.46;71.79;63804.97;5004843;28;20461;-78
2022/11/20 00:44:28;;;;;;;1.20;1.20;;;;;;;17.55;71.32;63816.94;5005383;28;20669;-77
2022/11/20 00:46:55;;;;;;;0.75;0.70;;;;;;;17.54;69.58;63805.59;5007268;28;20495;-78
2022/11/20 00:49:22;;;;;;;1.27;1.25;;;;;;;17.56;69.50;63813.34;5006591;28;20253;-79
2022/11/20 00:51:49;;;;;;;1.00;0.70;;;;;;;17.67;68.07;63819.13;5004098;28;20225;-77
2022/11/20 00:54:15;;;;;;;2.33;1.20;;;;;;;17.72;68.80;63824.88;5005499;28;20210;-78
2022/11/20 00:56:42;;;;;;;0.98;0.82;;;;;;;17.83;65.29;63833.72;4989269;28;20273;-79
2022/11/20 00:59:11;;;;;;;4.50;1.20;;;;;;;17.88;65.77;63840.97;5005349;28;20277;-78
2022/11/20 01:01:39;;;;;;;1.23;1.20;;;;;;;17.68;68.05;63828.41;4990147;28;20225;-79
2022/11/20 01:04:06;;;;;;;1.63;1.05;;;;;;;17.57;66.46;63816.97;4993086;28;20200;-78
2022/11/20 01:06:35;;;;;;;1.45;1.40;;;;;;;17.74;65.28;63831.56;4986579;28;20242;-78
2022/11/20 01:09:05;;;;;;;0.70;0.70;;;;;;;17.70;65.47;63827.41;4996044;28;20334;-78
2022/11/20 01:11:34;;;;;;;1.30;0.70;;;;;;;17.57;66.21;63814.38;5004750;28;20256;-78
2022/11/20 01:14:04;;;;;;;0.70;0.70;;;;;;;17.53;68.37;63807.66;4986492;28;20203;-77
2022/11/20 01:16:37;;;;;;;1.38;0.90;;;;;;;17.43;70.35;63794.13;5001212;28;20219;-78
2022/11/20 01:19:06;;;;;;;1.55;1.00;;;;;;;17.39;67.52;63792.53;5005780;28;20250;-77
2022/11/20 01:21:35;;;;;;;2.28;1.00;;;;;;;17.44;67.27;63800.84;5003158;28;20387;-77
2022/11/20 01:24:03;;;;;;;0.80;0.77;;;;;;;17.42;67.19;63795.66;4999380;28;20198;-78
2022/11/20 01:26:31;;;;;;;2.17;1.25;;;;;;;17.36;68.85;63789.41;5005390;28;20223;-79
2022/11/20 01:28:59;;;;;;;2.30;0.93;;;;;;;17.38;66.20;63794.06;5005930;28;20302;-79
2022/11/20 01:31:28;;;;;;;3.40;0.80;;;;;;;17.34;67.84;63793.50;5002872;28;20226;-80
2022/11/20 01:34:01;;;;;;;4.65;1.75;;;;;;;17.20;69.97;63771.22;4993174;28;20191;-80
2022/11/20 01:36:30;;;;;;;2.17;1.67;;;;;;;17.05;71.41;63757.66;4987447;28;20294;-78
2022/11/20 01:38:59;;;;;;;2.35;1.92;;;;;;;17.00;72.83;63752.44;4997306;28;20412;-77
2022/11/20 01:44:14;;;;;;;1.95;1.20;;;;;;;16.89;70.37;63743.59;5005147;28;20201;-78
2022/11/20 01:46:49;;;;;;;1.30;1.20;;;;;;;16.83;70.45;63737.84;5004963;28;20222;-77
2022/11/20 01:49:20;;;;;;;0.90;0.80;;;;;;;16.96;68.93;63748.81;5003339;28;20226;-77
2022/11/20 01:51:53;;;;;;;1.42;0.80;;;;;;;17.15;68.46;63766.00;5004612;28;20211;-78
2022/11/20 01:54:24;;;;;;;0.82;0.82;;;;;;;17.33;66.23;63789.38;5004872;28;20202;-77
2022/11/20 01:56:55;;;;;;;2.38;0.70;;;;;;;17.32;68.14;63783.69;5003170;28;20488;-77
2022/11/20 01:59:25;;;;;;;1.70;1.38;;;;;;;17.16;68.90;63771.69;4999616;28;20518;-77
2022/11/20 02:01:53;;;;;;;1.33;1.23;;;;;;;17.10;70.33;63765.94;5004654;28;20262;-78
2022/11/20 02:04:21;;;;;;;3.60;0.60;;;;;;;17.09;67.77;63762.34;5006378;28;20401;-78
2022/11/20 02:06:54;;;;;;;1.70;1.30;;;;;;;17.12;68.53;63767.50;5003856;28;20467;-77
2022/11/20 02:09:21;;;;;;;0.60;0.60;;;;;;;17.18;64.85;63766.56;5002451;28;20234;-77
2022/11/20 02:11:48;;;;;;;1.23;1.00;;;;;;;17.30;67.47;63783.69;5004249;28;20258;-78
2022/11/20 02:14:14;;;;;;;1.30;0.95;;;;;;;17.21;67.15;63776.88;5004573;28;20219;-77
2022/11/20 02:16:46;;;;;;;2.28;1.00;;;;;;;17.18;65.93;63771.19;4990183;28;20219;-78
2022/11/20 02:19:22;;;;;;;0.63;0.60;;;;;;;17.21;65.56;63774.84;5005082;28;20241;-79
2022/11/20 02:21:58;;;;;;;1.52;1.02;;;;;;;17.38;64.17;63792.00;5006240;28;20230;-78
2022/11/20 02:24:27;;;;;;;1.20;0.60;;;;;;;17.37;64.07;63790.44;5003706;28;20212;-78
2022/11/20 02:26:56;;;;;;;1.23;1.10;;;;;;;17.40;63.75;63793.56;4990914;28;20226;-79
2022/11/20 02:29:28;;;;;;;0.80;0.80;;;;;;;17.50;62.83;63809.66;4988364;28;20539;-77
2022/11/20 02:31:57;;;;;;;1.90;0.65;;;;;;;17.61;62.30;63823.69;5003957;28;20218;-78
2022/11/20 02:34:24;;;;;;;2.15;0.90;;;;;;;17.49;63.07;63805.53;5003381;28;20437;-78
2022/11/20 02:36:54;;;;;;;1.42;0.70;;;;;;;17.48;63.14;63804.50;5002280;28;20404;-77
2022/11/20 02:39:24;;;;;;;2.10;0.68;;;;;;;17.36;63.25;63789.91;5004148;28;20222;-76
2022/11/20 02:41:54;;;;;;;0.95;0.70;;;;;;;17.46;63.64;63797.25;5003598;28;20217;-77
2022/11/20 02:44:22;;;;;;;0.88;0.40;;;;;;;17.47;63.98;63801.41;4998147;28;20270;-79
2022/11/20 02:46:48;;;;;;;1.05;0.95;;;;;;;17.46;64.95;63802.41;5003252;28;20225;-77
2022/11/20 02:49:16;;;;;;;2.38;0.68;;;;;;;17.50;64.36;63804.00;5004315;28;20234;-78
2022/11/20 02:51:43;;;;;;;0.50;0.50;;;;;;;17.50;65.28;63801.44;5003969;28;20230;-78
2022/11/20 02:54:10;;;;;;;0.70;0.70;;;;;;;17.46;64.77;63804.97;5010315;28;20203;-77
2022/11/20 02:56:39;;;;;;;1.27;0.60;;;;;;;17.44;65.26;63795.69;5005607;28;20453;-77
2022/11/20 02:59:07;;;;;;;1.00;1.00;;;;;;;17.44;67.47;63800.84;5008555;28;20413;-78
2022/11/20 03:01:34;;;;;;;2.25;0.93;;;;;;;17.36;66.73;63797.13;5005012;28;20223;-77
2022/11/20 03:04:01;;;;;;;0.82;0.57;;;;;;;17.34;68.75;63787.84;4994175;28;20198;-79
2022/11/20 03:06:28;;;;;;;1.88;0.90;;;;;;;17.25;68.48;63784.16;5007661;28;20330;-77
2022/11/20 03:08:55;;;;;;;5.10;1.33;;;;;;;17.42;67.61;63801.31;5007353;28;20265;-78
2022/11/20 03:11:22;;;;;;;0.68;0.68;;;;;;;17.38;67.44;63789.44;5010944;28;20229;-77
2022/11/20 03:13:48;;;;;;;0.63;0.63;;;;;;;17.41;67.95;63797.72;5006682;28;20210;-78
2022/11/20 03:16:20;;;;;;;1.33;0.90;;;;;;;17.33;69.84;63789.38;4998948;28;20281;-78
2022/11/20 03:18:47;;;;;;;2.78;0.80;;;;;;;17.31;68.76;63784.72;4996178;28;20218;-77
2022/11/20 03:21:15;;;;;;;0.90;0.60;;;;;;;17.25;69.75;63781.56;4993457;28;20253;-77
2022/11/20 03:23:42;;;;;;;0.95;0.95;;;;;;;17.32;69.25;63791.41;4998462;28;20206;-77
2022/11/20 03:26:12;;;;;;;3.25;1.00;;;;;;;17.29;69.76;63778.00;5003629;28;20222;-78
2022/11/20 03:28:38;;;;;;;2.35;0.88;;;;;;;17.28;69.59;63781.59;4992947;28;20242;-77
2022/11/20 03:31:10;;;;;;;2.13;0.75;;;;;;;17.25;70.25;63775.91;5006654;28;20230;-77
2022/11/20 03:33:39;;;;;;;2.50;0.70;;;;;;;17.19;69.47;63772.75;5006375;28;20412;-78
2022/11/20 03:36:08;;;;;;;0.75;0.75;;;;;;;17.17;69.80;63770.66;5001835;28;20227;-78
2022/11/20 03:38:35;;;;;;;1.10;0.65;;;;;;;17.17;69.63;63770.16;5007605;28;20198;-77
2022/11/20 03:41:03;;;;;;;0.90;0.68;;;;;;;17.26;68.94;63782.59;5006895;28;20218;-77
2022/11/20 03:43:30;;;;;;;1.80;0.60;;;;;;;17.18;69.87;63769.16;5005005;28;20207;-77
2022/11/20 03:45:57;;;;;;;2.38;0.80;;;;;;;17.17;69.51;63770.16;5002063;28;20226;-77
2022/11/20 03:48:24;;;;;;;1.00;1.00;;;;;;;17.28;67.63;63782.13;5005817;28;20281;-78
2022/11/20 03:50:53;;;;;;;0.70;0.70;;;;;;;17.35;67.35;63788.88;5007431;28;20225;-77
2022/11/20 03:53:20;;;;;;;1.67;0.95;;;;;;;17.39;66.77;63795.09;4999288;28;20203;-78
2022/11/20 03:55:52;;;;;;;3.83;0.63;;;;;;;17.39;66.55;63792.53;4991430;28;20235;-78
2022/11/20 03:58:19;;;;;;;3.08;1.17;;;;;;;17.45;65.36;63799.28;5001308;28;20199;-78
2022/11/20 04:00:46;;;;;;;1.85;0.55;;;;;;;17.41;65.82;63795.13;5010448;28;20233;-79
2022/11/20 04:03:13;;;;;;;2.05;1.02;;;;;;;17.36;65.52;63792.50;5006204;28;20242;-77
2022/11/20 04:05:40;;;;;;;1.58;1.30;;;;;;;17.24;66.97;63777.44;5006836;28;20269;-78
2022/11/20 04:08:08;;;;;;;0.80;0.80;;;;;;;17.24;67.37;63777.94;5007805;28;20222;-77
2022/11/20 04:10:35;;;;;;;1.10;1.10;;;;;;;17.16;67.42;63769.63;5005434;28;20257;-77
2022/11/20 04:13:02;;;;;;;1.58;0.68;;;;;;;17.27;66.97;63780.56;5005645;28;20246;-78
2022/11/20 04:15:29;;;;;;;1.67;0.77;;;;;;;17.25;66.24;63779.00;4999465;28;20223;-78
2022/11/20 04:17:56;;;;;;;1.67;1.33;;;;;;;17.14;66.97;63769.59;5007794;28;20202;-76
2022/11/20 04:20:23;;;;;;;0.65;0.60;;;;;;;17.06;67.66;63756.13;5005528;28;20355;-78
2022/11/20 04:22:50;;;;;;;2.97;0.80;;;;;;;17.14;68.15;63764.44;5007043;28;20392;-76
2022/11/20 04:25:19;;;;;;;1.33;0.60;;;;;;;17.17;67.73;63770.66;5006249;28;20218;-78
2022/11/20 04:27:45;;;;;;;1.23;0.65;;;;;;;17.19;68.37;63777.91;5006388;28;20203;-77
2022/11/20 04:30:13;;;;;;;0.70;0.70;;;;;;;17.10;69.34;63760.28;5004272;28;20238;-78
2022/11/20 04:32:40;;;;;;;0.60;0.55;;;;;;;17.19;69.26;63775.31;5006245;28;20206;-77
2022/11/20 04:35:07;;;;;;;0.77;0.77;;;;;;;17.01;71.78;63759.16;5004318;28;20226;-77
2022/11/20 04:37:34;;;;;;;0.90;0.60;;;;;;;17.05;72.14;63758.19;5007191;28;20274;-78
2022/11/20 04:40:01;;;;;;;2.55;0.80;;;;;;;17.00;72.51;63752.97;5005873;28;20203;-77
2022/11/20 04:42:29;;;;;;;1.60;0.70;;;;;;;16.92;73.04;63749.78;5003864;28;20491;-77
2022/11/20 04:44:57;;;;;;;0.90;0.90;;;;;;;16.88;73.67;63742.53;5004505;28;20203;-77
2022/11/20 04:47:24;;;;;;;1.20;0.88;;;;;;;16.74;76.04;63730.56;5006293;28;20446;-78
2022/11/20 04:49:51;;;;;;;0.68;0.68;;;;;;;16.81;74.53;63733.19;5006328;28;20305;-77
2022/11/20 04:52:17;;;;;;;1.80;1.00;;;;;;;16.78;74.42;63729.56;5009216;28;20405;-79
2022/11/20 04:54:44;;;;;;;1.02;0.63;;;;;;;16.77;74.89;63728.53;4995881;28;20418;-79
2022/11/20 04:57:11;;;;;;;1.77;0.90;;;;;;;16.69;76.16;63723.28;5005592;28;20199;-76
2022/11/20 04:59:39;;;;;;;1.50;0.93;;;;;;;16.67;73.94;63718.13;5005020;28;20475;-76
2022/11/20 05:02:06;;;;;;;1.85;0.65;;;;;;;16.72;76.51;63720.75;5005114;28;20219;-76
2022/11/20 05:04:33;;;;;;;1.58;0.57;;;;;;;16.68;77.30;63724.81;5005334;28;20202;-76
2022/11/20 05:06:59;;;;;;;1.95;0.57;;;;;;;16.68;78.00;63719.69;5008294;28;20222;-79
2022/11/20 05:09:26;;;;;;;1.10;0.57;;;;;;;16.55;80.57;63703.06;5004843;28;20240;-77
2022/11/20 05:11:53;;;;;;;3.22;0.85;;;;;;;16.48;82.08;63698.84;5004768;28;20396;-78
2022/11/20 05:14:21;;;;;;;0.40;0.40;;;;;;;16.38;83.56;63693.59;4995996;28;20218;-77
2022/11/20 05:16:49;;;;;;;0.47;0.47;;;;;;;16.26;86.87;63680.56;5001947;28;20223;-77
2022/11/20 05:19:16;;;;;;;2.47;0.40;;;;;;;16.15;88.67;63664.53;5006432;28;20457;-77
2022/11/20 05:21:44;;;;;;;1.95;0.93;;;;;;;15.97;87.68;63643.22;4996626;28;20234;-79
2022/11/20 05:24:11;;;;;;;1.38;0.70;;;;;;;16.06;87.27;63658.25;5006230;28;20203;-78
2022/11/20 05:26:38;;;;;;;3.13;0.85;;;;;;;16.03;88.73;63649.47;5005071;28;20277;-77
2022/11/20 05:29:04;;;;;;;2.55;0.73;;;;;;;16.02;88.44;63651.00;5002881;28;20265;-77
2022/11/20 05:31:31;;;;;;;0.70;0.70;;;;;;;15.97;89.27;63645.81;5000110;28;20245;-78
2022/11/20 05:34:00;;;;;;;0.60;0.60;;;;;;;15.93;88.19;63644.19;5005602;28;20370;-77
2022/11/20 05:36:27;;;;;;;1.02;0.93;;;;;;;15.91;89.04;63644.72;5003885;28;20227;-76
2022/11/20 05:38:54;;;;;;;0.75;0.60;;;;;;;15.93;89.06;63646.78;5004057;28;20203;-77
2022/11/20 05:41:21;;;;;;;2.50;1.10;;;;;;;15.93;90.01;63642.16;5004912;28;20223;-77
2022/11/20 05:43:49;;;;;;;3.17;1.05;;;;;;;15.96;85.59;63644.78;5005416;28;20199;-79
2022/11/20 05:46:19;;;;;;;0.95;0.95;;;;;;;15.99;86.16;63650.44;5002585;28;20251;-78
2022/11/20 05:48:46;;;;;;;1.25;0.80;;;;;;;16.04;86.51;63660.78;4992227;28;20550;-78
2022/11/20 05:51:16;;;;;;;0.82;0.82;;;;;;;16.02;85.97;63654.09;5005158;28;20527;-78
2022/11/20 05:53:43;;;;;;;1.75;0.90;;;;;;;16.12;84.64;63664.50;5003677;28;20207;-78
2022/11/20 05:56:12;;;;;;;0.77;0.77;;;;;;;16.11;87.67;63662.94;5000080;28;20219;-78
2022/11/20 05:58:39;;;;;;;0.93;0.70;;;;;;;15.96;87.72;63647.84;4985772;28;20199;-77
2022/11/20 06:01:08;;;;;;;0.85;0.85;;;;;;;15.91;90.61;63640.06;5002849;28;20231;-77
2022/11/20 06:03:35;;;;;;;1.45;0.70;;;;;;;16.00;89.25;63652.00;5004126;28;20209;-77
2022/11/20 06:06:04;;;;;;;1.27;1.00;;;;;;;15.98;88.70;63646.84;4992733;28;20215;-77
2022/11/20 06:08:33;;;;;;;2.70;0.90;;;;;;;15.96;88.01;63647.84;5005777;28;20206;-79
2022/11/20 06:11:04;;;;;;;3.33;1.05;;;;;;;16.00;87.72;63646.88;5004269;28;20230;-77
2022/11/20 06:13:31;;;;;;;2.17;0.80;;;;;;;16.10;84.58;63661.91;5004197;28;20199;-77
2022/11/20 06:15:58;;;;;;;5.00;0.80;;;;;;;16.06;84.36;63655.69;5003971;28;20421;-78
2022/11/20 06:18:27;;;;;;;1.13;0.90;;;;;;;16.17;82.70;63671.72;5004475;28;20211;-78
2022/11/20 06:21:01;;;;;;;1.98;0.98;;;;;;;16.24;83.45;63673.88;5003074;28;20219;-77
2022/11/20 06:23:29;;;;;;;3.55;1.00;;;;;;;16.31;79.50;63678.59;4997830;28;20207;-77
2022/11/20 06:25:58;;;;;;;4.50;0.90;;;;;;;16.45;78.61;63698.28;5003083;28;20272;-79
2022/11/20 06:28:25;;;;;;;1.02;0.90;;;;;;;16.50;79.15;63700.44;4995939;28;20199;-77
2022/11/20 06:30:52;;;;;;;2.65;1.15;;;;;;;16.56;78.76;63707.19;5003097;28;20234;-76
2022/11/20 06:33:19;;;;;;;0.60;0.60;;;;;;;16.54;78.46;63704.59;4991614;28;20233;-78
2022/11/20 06:35:46;;;;;;;1.08;0.70;;;;;;;16.62;76.65;63713.44;5004284;28;20222;-77
2022/11/20 06:38:12;;;;;;;1.05;0.80;;;;;;;16.76;76.31;63730.56;5004451;28;20199;-78
2022/11/20 06:40:41;;;;;;;1.17;0.57;;;;;;;16.87;75.21;63741.50;5002478;28;20253;-78
2022/11/20 06:43:10;;;;;;;1.73;0.80;;;;;;;16.98;70.34;63752.94;5004679;28;20539;-80
2022/11/20 06:45:37;;;;;;;2.88;1.20;;;;;;;16.94;71.67;63746.75;5004666;28;20229;-78
2022/11/20 06:48:05;;;;;;;0.65;0.65;;;;;;;17.33;68.38;63784.75;5003721;28;20461;-77
2022/11/20 06:50:32;;;;;;;1.33;0.50;;;;;;;17.47;65.46;63800.88;4994549;28;20234;-77
2022/11/20 06:53:02;;;;;;;0.47;0.47;;;;;;;17.81;62.73;63836.78;5001931;28;20194;-77
2022/11/20 06:55:29;;;;;;;2.83;0.60;;;;;;;17.97;63.62;63850.88;4994165;28;20249;-77
2022/11/20 06:57:56;;;;;;;0.85;0.70;;;;;;;18.18;60.95;63880.50;5000306;28;20217;-77
2022/11/20 07:00:25;;;;;;;0.70;0.45;;;;;;;18.49;60.14;63907.13;5001720;28;20230;-77
2022/11/20 07:02:52;;;;;;;1.00;0.80;;;;;;;18.98;59.92;63955.09;4998433;28;20202;-78
2022/11/20 07:05:19;;;;;;;0.45;0.45;;;;;;;19.00;57.38;63965.44;4996936;28;20222;-77
2022/11/20 07:07:46;;;;;;;0.63;0.50;;;;;;;18.86;58.42;63945.19;4991550;28;20199;-77
2022/11/20 07:10:13;;;;;;;1.88;0.55;;;;;;;18.82;59.52;63941.00;4998144;28;20254;-77
2022/11/20 07:12:40;;;;;;;0.50;0.50;;;;;;;18.41;61.15;63901.38;4990448;28;20384;-78
2022/11/20 07:15:08;;;;;;;1.48;0.90;;;;;;;18.10;62.93;63867.00;4992173;28;20390;-78
2022/11/20 07:17:37;;;;;;;1.25;0.93;;;;;;;17.98;66.36;63851.41;4991627;28;20215;-78
2022/11/20 07:20:04;;;;;;;7.43;1.02;;;;;;;17.89;64.15;63844.63;4996921;28;20426;-78
2022/11/20 07:22:31;;;;;;;1.55;1.23;;;;;;;17.83;66.37;63838.34;4992847;28;20202;-77
2022/11/20 07:24:58;;;;;;;2.80;0.90;;;;;;;17.91;65.17;63846.69;4995141;28;20206;-78
2022/11/20 07:27:25;;;;;;;0.40;0.40;;;;;;;17.91;63.10;63849.28;4991467;28;20230;-77
2022/11/20 07:29:52;;;;;;;1.25;0.60;;;;;;;17.90;64.00;63848.22;4984790;28;20227;-78
2022/11/20 07:32:18;;;;;;;1.25;0.75;;;;;;;17.89;63.01;63844.63;4990990;28;20250;-77
2022/11/20 07:34:47;;;;;;;1.25;1.08;;;;;;;17.82;63.89;63839.91;4991888;28;20490;-78
2022/11/20 07:37:14;;;;;;;1.70;1.38;;;;;;;17.78;64.99;63835.72;4998377;28;20527;-78
2022/11/20 07:39:41;;;;;;;1.42;0.70;;;;;;;17.63;66.72;63814.97;4993474;28;20207;-78
2022/11/20 07:42:11;;;;;;;6.15;1.25;;;;;;;17.65;66.97;63822.72;4996711;28;20235;-77
2022/11/20 07:44:39;;;;;;;2.22;0.77;;;;;;;17.69;67.85;63823.78;4995648;28;20477;-77
2022/11/20 07:47:06;;;;;;;8.80;5.47;;;;;;;17.65;69.05;63822.72;4997406;28;20222;-77
2022/11/20 07:49:33;;;;;;;2.08;1.85;;;;;;;17.77;70.53;63829.53;4997725;28;20240;-77
2022/11/20 07:52:01;;;;;;;4.95;1.17;;;;;;;17.61;70.02;63815.97;4997194;28;20225;-77
2022/11/20 07:54:28;;;;;;;3.30;2.78;;;;;;;17.49;73.53;63808.63;4995091;28;20222;-79
2022/11/20 07:56:56;;;;;;;4.07;1.48;;;;;;;17.45;77.32;63801.88;4993939;28;20226;-77
2022/11/20 07:59:23;;;;;;;7.00;4.18;;;;;;;17.06;79.74;63759.22;4998757;28;20393;-77
2022/11/20 08:01:50;;;;;;;1.52;1.42;;;;;;;17.00;80.78;63755.53;4994894;28;20215;-76
2022/11/20 08:04:17;;;;;;;5.57;2.42;;;;;;;16.90;78.69;63745.13;4995494;28;20233;-77
2022/11/20 08:06:44;;;;;;;2.97;1.05;;;;;;;16.94;82.65;63743.63;4995201;28;20269;-77
2022/11/20 08:09:12;;;;;;;2.13;1.23;;;;;;;17.00;79.51;63752.97;4993684;28;20442;-78
2022/11/20 08:14:23;;;;;;;9.85;1.52;;;;;;;17.20;78.53;63773.28;4999022;28;20229;-77
2022/11/20 08:16:53;;;;;;;2.15;1.95;;;;;;;17.42;78.91;63796.16;4998087;28;20546;-77
2022/11/20 08:19:20;;;;;;;3.67;1.00;;;;;;;17.64;78.27;63818.56;4992083;28;20204;-78
2022/11/20 08:21:47;;;;;;;1.08;1.08;;;;;;;17.48;79.52;63805.00;4995337;28;20563;-78
2022/11/20 08:24:15;;;;;;;0.80;0.80;;;;;;;17.17;82.99;63775.81;4996867;28;20211;-79
2022/11/20 08:26:42;;;;;;;1.48;1.10;;;;;;;17.03;84.83;63756.09;4996795;28;20254;-79
2022/11/20 08:29:09;;;;;;;2.55;1.17;;;;;;;17.24;82.43;63780.00;4995244;28;20241;-78
2022/11/20 08:31:36;;;;;;;3.83;1.60;;;;;;;17.03;84.10;63756.09;4994544;28;20230;-79
2022/11/20 08:34:03;;;;;;;1.75;1.63;;;;;;;17.01;84.97;63754.03;4995036;28;20223;-79
2022/11/20 08:36:30;;;;;;;3.53;1.05;;;;;;;17.08;82.34;63758.22;4993681;28;20393;-78
2022/11/20 08:38:56;;;;;;;3.92;2.42;;;;;;;17.17;81.42;63770.16;4999434;28;20249;-78
2022/11/20 08:41:25;;;;;;;6.60;1.95;;;;;;;17.05;82.76;63757.66;4996772;28;20231;-77
2022/11/20 08:43:54;;;;;;;3.60;1.33;;;;;;;17.23;80.18;63782.06;5001527;28;20512;-77
2022/11/20 08:46:21;;;;;;;4.90;1.30;;;;;;;17.31;75.72;63787.81;5004762;28;20242;-78
2022/11/20 08:48:48;;;;;;;2.67;1.35;;;;;;;17.19;77.33;63772.75;5001737;28;20203;-80
2022/11/20 08:51:17;;;;;;;5.43;1.95;;;;;;;17.10;79.51;63760.81;5005312;28;20448;-80
2022/11/20 08:53:44;;;;;;;4.65;1.75;;;;;;;17.10;81.19;63765.44;5005696;28;20195;-79
2022/11/20 08:56:11;;;;;;;3.92;1.20;;;;;;;17.09;82.16;63766.97;5004153;28;20219;-77
2022/11/20 08:58:40;;;;;;;2.13;1.10;;;;;;;16.94;83.23;63746.75;4995259;28;20500;-76
2022/11/20 09:01:06;;;;;;;3.28;2.00;;;;;;;16.88;86.76;63740.47;5000729;28;20463;-79
2022/11/20 09:03:34;;;;;;;2.08;1.17;;;;;;;16.91;87.91;63745.66;5004600;28;20230;-76
2022/11/20 09:06:01;;;;;;;3.13;1.60;;;;;;;16.95;89.49;63752.38;5004828;28;20229;-78
2022/11/20 09:08:30;;;;;;;6.35;1.90;;;;;;;16.79;93.53;63736.25;5001693;28;20214;-77
2022/11/20 09:10:58;;;;;;;4.13;1.98;;;;;;;16.64;90.76;63712.94;5001595;28;20289;-76
2022/11/20 09:13:27;;;;;;;2.65;2.47;;;;;;;16.45;100.00;63697.75;5005210;28;20261;-79
2022/11/20 09:15:56;;;;;;;5.85;2.83;;;;;;;16.19;100.00;63668.69;4998266;28;20242;-77
2022/11/20 09:18:23;;;;;;;4.18;2.72;;;;;;;16.01;100.00;63650.47;5003497;28;20210;-77
2022/11/20 09:20:50;;;;;;;2.85;2.65;;;;;;;15.88;100.00;63641.56;5004622;28;20238;-77
2022/11/20 09:23:17;;;;;;;9.60;3.60;;;;;;;15.96;100.00;63644.78;5006923;28;20225;-78
2022/11/20 09:25:44;;;;;;;5.93;2.90;;;;;;;16.12;100.00;63667.06;5005085;28;20219;-76
2022/11/20 09:28:11;;;;;;;9.18;3.70;;;;;;;16.25;100.00;63677.50;5001533;28;20203;-76
2022/11/20 09:30:38;;;;;;;4.50;3.33;;;;;;;16.02;100.00;63648.44;5000267;28;20242;-75
2022/11/20 09:33:07;;;;;;;4.40;2.58;;;;;;;15.88;100.00;63631.81;5004644;28;20494;-74
2022/11/20 09:35:34;;;;;;;3.30;2.42;;;;;;;15.59;100.00;63606.28;4986459;28;20536;-76
2022/11/20 09:38:06;;;;;;;4.18;3.17;;;;;;;15.60;100.00;63610.41;5004940;28;20245;-75
2022/11/20 09:40:35;;;;;;;3.80;2.83;;;;;;;15.72;100.00;63619.81;5002514;28;20219;-75
2022/11/20 09:43:08;;;;;;;8.15;3.55;;;;;;;15.89;100.00;63640.56;5005334;28;20222;-76
2022/11/20 09:45:55;;;;;;;7.80;5.00;;;;;;;16.09;100.00;63658.81;4995352;28;20251;-75
2022/11/20 09:48:48;;;;;;;5.47;4.13;;;;;;;16.36;100.00;63683.78;4984650;28;20203;-75
2022/11/20 09:51:28;;;;;;;4.43;4.03;;;;;;;16.17;100.00;63672.25;4984693;28;20242;-76
2022/11/20 09:54:03;;;;;;;4.30;3.70;;;;;;;16.18;100.00;63665.59;4985127;28;20213;-77
2022/11/20 09:56:31;;;;;;;6.03;4.28;;;;;;;16.34;100.00;63684.28;4984657;28;20526;-76
2022/11/20 09:59:03;;;;;;;6.75;4.72;;;;;;;16.51;100.00;63704.03;4986341;28;20204;-76
2022/11/20 10:01:34;;;;;;;11.05;5.03;;;;;;;16.67;100.00;63716.06;4986317;28;20407;-77
2022/11/20 10:04:05;;;;;;;5.78;4.30;;;;;;;16.75;100.00;63726.97;4996403;28;20245;-77
2022/11/20 10:06:34;;;;;;;4.80;4.13;;;;;;;16.86;100.00;63743.53;4994102;28;20421;-77
2022/11/20 10:09:09;;;;;;;7.28;4.53;;;;;;;16.92;100.00;63742.06;4999474;28;20258;-78
2022/11/20 10:11:48;;;;;;;5.05;3.92;;;;;;;16.87;100.00;63739.44;4996858;28;20288;-77
2022/11/20 10:14:23;;;;;;;4.05;3.50;;;;;;;16.95;100.00;63747.25;5005094;28;20228;-78
2022/11/20 10:17:02;;;;;;;5.10;2.30;;;;;;;16.72;100.00;63723.81;5002436;28;20230;-77
2022/11/20 10:19:48;;;;;;;3.42;2.33;;;;;;;16.74;100.00;63727.97;4993600;28;20490;-79
2022/11/20 10:22:32;;;;;;;1.88;1.65;;;;;;;16.52;100.00;63707.66;4997478;28;20392;-79
2022/11/20 10:25:07;;;;;;;4.25;2.15;;;;;;;16.64;100.00;63718.09;4986023;28;20207;-76
2022/11/20 10:28:04;;;;;;;2.03;1.77;;;;;;;16.75;100.00;63729.53;4989203;28;20239;-77
2022/11/20 10:30:36;;;;;;;4.60;2.83;;;;;;;16.73;100.00;63726.94;4991351;28;20261;-77
2022/11/20 10:33:11;;;;;;;3.22;2.28;;;;;;;16.74;100.00;63723.34;4990379;28;20207;-77
2022/11/20 10:35:43;;;;;;;2.63;2.28;;;;;;;16.83;100.00;63734.75;4992343;28;20222;-77
2022/11/20 10:38:16;;;;;;;6.88;3.03;;;;;;;16.80;100.00;63732.16;5002398;28;20207;-78
2022/11/20 10:40:47;;;;;;;3.33;2.85;;;;;;;17.05;100.00;63758.19;5001290;28;20206;-77
2022/11/20 10:43:18;;;;;;;6.38;3.05;;;;;;;17.24;100.00;63775.38;4984683;28;20268;-77
2022/11/20 10:45:54;;;;;;;3.50;3.20;;;;;;;17.41;100.00;63799.75;4996979;28;20226;-79
2022/11/20 10:48:24;;;;;;;5.80;3.45;;;;;;;17.26;100.00;63780.03;4987623;28;20378;-77
2022/11/20 10:51:00;;;;;;;5.28;3.00;;;;;;;17.42;100.00;63793.59;5006277;28;20234;-77
2022/11/20 10:53:45;;;;;;;8.05;2.47;;;;;;;17.45;100.00;63799.28;5005290;28;20199;-77
2022/11/20 10:56:20;;;;;;;4.57;2.80;;;;;;;17.39;100.00;63797.69;4999121;28;20260;-78
2022/11/20 10:58:57;;;;;;;3.92;2.92;;;;;;;17.02;100.00;63752.47;4999490;28;20195;-76
2022/11/20 11:01:24;;;;;;;4.45;2.90;;;;;;;16.85;100.00;63739.94;4983585;28;20360;-78
2022/11/20 11:03:52;;;;;;;3.97;2.45;;;;;;;16.06;100.00;63650.56;4986730;28;20207;-76
2022/11/20 11:06:27;;;;;;;3.17;2.85;;;;;;;15.70;100.00;63620.31;4999622;28;20245;-77
2022/11/20 11:09:00;;;;;;;4.50;3.33;;;;;;;15.45;100.00;63594.81;4993378;28;20190;-77
2022/11/20 11:11:34;;;;;;;6.75;3.00;;;;;;;15.46;100.00;63595.34;4984177;28;20586;-77
2022/11/20 11:14:08;;;;;;;6.07;2.58;;;;;;;15.45;100.00;63594.81;4999691;28;20287;-77
2022/11/20 11:16:35;;;;;;;3.38;3.17;;;;;;;15.27;100.00;63573.03;4992445;28;20282;-77
2022/11/20 11:19:08;;;;;;;11.95;4.22;;;;;;;15.08;100.00;63554.31;4996217;28;20222;-74
2022/11/20 11:21:41;;;;;;;8.82;4.38;;;;;;;14.91;100.00;63536.66;4999299;28;20243;-75
2022/11/20 11:24:21;;;;;;;9.13;4.57;;;;;;;14.80;100.00;63524.69;4990113;28;20195;-75
2022/11/20 11:26:53;;;;;;;9.27;5.15;;;;;;;14.49;100.00;63500.72;4987831;28;20251;-76
2022/11/20 11:29:21;;;;;;;1.58;1.48;;;;;;;14.15;100.00;63457.19;4998910;28;20258;-76
2022/11/20 11:31:48;;;;;;;1.13;1.00;;;;;;;13.72;100.00;63410.50;4998116;28;20420;-76
2022/11/20 11:34:17;;;;;;;3.58;1.60;;;;;;;13.37;100.00;63382.38;4994038;28;20208;-77
2022/11/20 11:36:53;;;;;;;0.32;0.32;;;;;;;12.95;100.00;63331.13;4996992;28;20215;-76
2022/11/20 11:39:21;;;;;;;1.10;0.50;;;;;;;12.68;100.00;63308.72;5006648;28;20284;-77
2022/11/20 11:41:52;;;;;;;0.80;0.50;;;;;;;12.46;100.00;63280.81;5003715;28;20249;-75
2022/11/20 11:47:11;;;;;;;1.63;0.28;;;;;;;12.14;100.00;63245.09;5002703;28;20234;-77